sensor_id;sensor_type;location;lat;lon;timestamp;temperature;humidity
41060;DHT22;26811;53.160;8.202;2024-02-23T00:01:31;7.60;99.90
41060;DHT22;26811;53.160;8.202;2024-02-23T00:06:32;7.50;99.90
41060;DHT22;26811;53.160;8.202;2024-02-23T00:11:32;7.40;99.90
41060;DHT22;26811;53.160;8.202;2024-02-23T00:16:40;7.30;99.90
41060;DHT22;26811;53.160;8.202;2024-02-23T00:21:41;7.20;99.90
41060;DHT22;26811;53.160;8.202;2024-02-23T00:26:43;7.10;99.90
41060;DHT22;26811;53.160;8.202;2024-02-23T00:31:44;7.00;99.90
41060;DHT22;26811;53.160;8.202;2024-02-23T00:36:45;6.80;99.90
41060;DHT22;26811;53.160;8.202;2024-02-23T00:41:46;6.70;99.90
41060;DHT22;26811;53.160;8.202;2024-02-23T00:46:46;6.60;99.90
41060;DHT22;26811;53.160;8.202;2024-02-23T00:51:47;6.50;99.90
41060;DHT22;26811;53.160;8.202;2024-02-23T00:56:47;6.30;99.90
41060;DHT22;26811;53.160;8.202;2024-02-23T01:01:48;6.20;99.90
41060;DHT22;26811;53.160;8.202;2024-02-23T01:06:48;6.10;99.90
41060;DHT22;26811;53.160;8.202;2024-02-23T01:11:49;6.00;99.90
41060;DHT22;26811;53.160;8.202;2024-02-23T01:16:50;5.90;99.90
41060;DHT22;26811;53.160;8.202;2024-02-23T01:21:50;5.80;99.90
41060;DHT22;26811;53.160;8.202;2024-02-23T01:26:59;5.70;99.90
41060;DHT22;26811;53.160;8.202;2024-02-23T01:32:00;5.60;99.90
41060;DHT22;26811;53.160;8.202;2024-02-23T01:37:00;5.60;99.90
41060;DHT22;26811;53.160;8.202;2024-02-23T01:42:01;5.60;99.90
41060;DHT22;26811;53.160;8.202;2024-02-23T01:47:01;5.60;99.90
41060;DHT22;26811;53.160;8.202;2024-02-23T01:52:02;5.60;99.90
41060;DHT22;26811;53.160;8.202;2024-02-23T01:57:03;5.60;99.90
41060;DHT22;26811;53.160;8.202;2024-02-23T02:02:04;5.50;99.90
41060;DHT22;26811;53.160;8.202;2024-02-23T02:07:05;5.40;99.90
41060;DHT22;26811;53.160;8.202;2024-02-23T02:12:06;5.30;99.90
41060;DHT22;26811;53.160;8.202;2024-02-23T02:17:07;5.10;99.90
41060;DHT22;26811;53.160;8.202;2024-02-23T02:22:07;4.90;99.90
41060;DHT22;26811;53.160;8.202;2024-02-23T02:27:08;4.70;99.90
41060;DHT22;26811;53.160;8.202;2024-02-23T02:32:08;4.60;99.90
41060;DHT22;26811;53.160;8.202;2024-02-23T02:37:09;4.50;99.90
41060;DHT22;26811;53.160;8.202;2024-02-23T02:42:09;4.40;99.90
41060;DHT22;26811;53.160;8.202;2024-02-23T02:47:10;4.40;99.90
41060;DHT22;26811;53.160;8.202;2024-02-23T02:52:11;4.40;99.90
41060;DHT22;26811;53.160;8.202;2024-02-23T02:57:11;4.40;99.90
41060;DHT22;26811;53.160;8.202;2024-02-23T03:02:14;4.50;99.90
41060;DHT22;26811;53.160;8.202;2024-02-23T03:07:15;4.50;99.90
41060;DHT22;26811;53.160;8.202;2024-02-23T03:12:17;4.60;99.90
41060;DHT22;26811;53.160;8.202;2024-02-23T03:17:17;4.80;99.90
41060;DHT22;26811;53.160;8.202;2024-02-23T03:22:18;4.90;99.90
41060;DHT22;26811;53.160;8.202;2024-02-23T03:27:19;4.90;99.90
41060;DHT22;26811;53.160;8.202;2024-02-23T03:32:20;4.90;99.90
41060;DHT22;26811;53.160;8.202;2024-02-23T03:37:20;4.90;99.90
41060;DHT22;26811;53.160;8.202;2024-02-23T03:42:21;4.90;99.90
41060;DHT22;26811;53.160;8.202;2024-02-23T03:47:21;4.90;99.90
41060;DHT22;26811;53.160;8.202;2024-02-23T03:52:22;4.90;99.90
41060;DHT22;26811;53.160;8.202;2024-02-23T03:57:22;5.00;99.90
41060;DHT22;26811;53.160;8.202;2024-02-23T04:02:23;5.00;99.90
41060;DHT22;26811;53.160;8.202;2024-02-23T04:07:23;5.10;99.90
41060;DHT22;26811;53.160;8.202;2024-02-23T04:12:24;5.10;99.90
41060;DHT22;26811;53.160;8.202;2024-02-23T04:17:25;5.20;99.90
41060;DHT22;26811;53.160;8.202;2024-02-23T04:22:25;5.10;99.90
41060;DHT22;26811;53.160;8.202;2024-02-23T04:27:26;5.00;99.90
41060;DHT22;26811;53.160;8.202;2024-02-23T04:32:26;4.90;99.90
41060;DHT22;26811;53.160;8.202;2024-02-23T04:37:27;4.70;99.90
41060;DHT22;26811;53.160;8.202;2024-02-23T04:42:27;4.70;99.90
41060;DHT22;26811;53.160;8.202;2024-02-23T04:47:28;4.60;99.90
41060;DHT22;26811;53.160;8.202;2024-02-23T04:52:28;4.60;99.90
41060;DHT22;26811;53.160;8.202;2024-02-23T04:57:29;4.60;99.90
41060;DHT22;26811;53.160;8.202;2024-02-23T05:02:29;4.60;99.90
41060;DHT22;26811;53.160;8.202;2024-02-23T05:07:35;4.60;99.90
41060;DHT22;26811;53.160;8.202;2024-02-23T05:12:35;4.60;99.90
41060;DHT22;26811;53.160;8.202;2024-02-23T05:17:36;4.60;99.90
41060;DHT22;26811;53.160;8.202;2024-02-23T05:22:38;4.70;99.90
41060;DHT22;26811;53.160;8.202;2024-02-23T05:27:38;4.60;99.90
41060;DHT22;26811;53.160;8.202;2024-02-23T05:32:39;4.70;99.90
41060;DHT22;26811;53.160;8.202;2024-02-23T05:37:41;4.70;99.90
41060;DHT22;26811;53.160;8.202;2024-02-23T05:42:41;4.70;99.90
41060;DHT22;26811;53.160;8.202;2024-02-23T05:47:42;4.70;99.90
41060;DHT22;26811;53.160;8.202;2024-02-23T05:52:42;4.70;99.90
41060;DHT22;26811;53.160;8.202;2024-02-23T05:57:43;4.80;99.90
41060;DHT22;26811;53.160;8.202;2024-02-23T06:02:43;4.80;99.90
41060;DHT22;26811;53.160;8.202;2024-02-23T06:07:44;4.80;99.90
41060;DHT22;26811;53.160;8.202;2024-02-23T06:12:44;4.80;99.90
41060;DHT22;26811;53.160;8.202;2024-02-23T06:17:45;4.80;99.90
41060;DHT22;26811;53.160;8.202;2024-02-23T06:22:46;4.80;99.90
41060;DHT22;26811;53.160;8.202;2024-02-23T06:27:46;4.80;99.90
41060;DHT22;26811;53.160;8.202;2024-02-23T06:32:47;4.90;99.90
41060;DHT22;26811;53.160;8.202;2024-02-23T06:37:47;4.90;99.90
41060;DHT22;26811;53.160;8.202;2024-02-23T06:42:48;4.90;99.90
41060;DHT22;26811;53.160;8.202;2024-02-23T06:47:50;4.90;99.90
41060;DHT22;26811;53.160;8.202;2024-02-23T06:52:51;5.10;99.90
41060;DHT22;26811;53.160;8.202;2024-02-23T06:57:51;5.20;99.90
41060;DHT22;26811;53.160;8.202;2024-02-23T07:02:52;5.40;99.90
41060;DHT22;26811;53.160;8.202;2024-02-23T07:07:52;5.50;99.90
41060;DHT22;26811;53.160;8.202;2024-02-23T07:12:53;5.60;99.90
41060;DHT22;26811;53.160;8.202;2024-02-23T07:17:53;5.60;99.90
41060;DHT22;26811;53.160;8.202;2024-02-23T07:22:54;5.60;99.90
41060;DHT22;26811;53.160;8.202;2024-02-23T07:27:55;5.60;99.90
41060;DHT22;26811;53.160;8.202;2024-02-23T07:32:56;5.60;99.90
41060;DHT22;26811;53.160;8.202;2024-02-23T07:37:57;5.70;99.90
41060;DHT22;26811;53.160;8.202;2024-02-23T07:42:57;5.90;99.90
41060;DHT22;26811;53.160;8.202;2024-02-23T07:47:58;6.00;99.90
41060;DHT22;26811;53.160;8.202;2024-02-23T07:52:58;6.10;99.90
41060;DHT22;26811;53.160;8.202;2024-02-23T07:57:59;6.20;99.90
41060;DHT22;26811;53.160;8.202;2024-02-23T08:03:01;6.20;99.90
41060;DHT22;26811;53.160;8.202;2024-02-23T08:08:02;6.30;99.90
41060;DHT22;26811;53.160;8.202;2024-02-23T08:13:06;6.30;99.90
41060;DHT22;26811;53.160;8.202;2024-02-23T08:18:10;6.50;99.90
41060;DHT22;26811;53.160;8.202;2024-02-23T08:23:10;6.70;99.90
41060;DHT22;26811;53.160;8.202;2024-02-23T08:28:11;6.90;99.90
41060;DHT22;26811;53.160;8.202;2024-02-23T08:33:11;7.10;99.90
41060;DHT22;26811;53.160;8.202;2024-02-23T08:38:12;7.20;99.90
41060;DHT22;26811;53.160;8.202;2024-02-23T08:43:13;7.30;99.90
41060;DHT22;26811;53.160;8.202;2024-02-23T08:48:14;7.60;99.90
41060;DHT22;26811;53.160;8.202;2024-02-23T08:53:16;7.90;99.90
41060;DHT22;26811;53.160;8.202;2024-02-23T08:58:17;8.30;99.90
41060;DHT22;26811;53.160;8.202;2024-02-23T09:03:18;8.50;99.90
41060;DHT22;26811;53.160;8.202;2024-02-23T09:08:18;8.30;99.90
41060;DHT22;26811;53.160;8.202;2024-02-23T09:13:19;7.90;99.90
41060;DHT22;26811;53.160;8.202;2024-02-23T09:18:19;7.90;99.90
41060;DHT22;26811;53.160;8.202;2024-02-23T09:23:20;7.80;99.90
41060;DHT22;26811;53.160;8.202;2024-02-23T09:28:21;7.70;99.90
41060;DHT22;26811;53.160;8.202;2024-02-23T09:33:21;7.70;99.90
41060;DHT22;26811;53.160;8.202;2024-02-23T09:38:22;7.70;99.90
41060;DHT22;26811;53.160;8.202;2024-02-23T09:43:28;7.80;99.90
41060;DHT22;26811;53.160;8.202;2024-02-23T09:48:29;7.80;99.90
41060;DHT22;26811;53.160;8.202;2024-02-23T09:53:37;7.70;99.90
41060;DHT22;26811;53.160;8.202;2024-02-23T09:58:39;7.60;99.90
41060;DHT22;26811;53.160;8.202;2024-02-23T10:03:41;7.70;99.90
41060;DHT22;26811;53.160;8.202;2024-02-23T10:08:43;7.70;99.90
41060;DHT22;26811;53.160;8.202;2024-02-23T10:13:43;7.70;99.90
41060;DHT22;26811;53.160;8.202;2024-02-23T10:18:44;7.70;99.90
41060;DHT22;26811;53.160;8.202;2024-02-23T10:23:44;7.70;99.90
41060;DHT22;26811;53.160;8.202;2024-02-23T10:28:46;7.60;99.90
41060;DHT22;26811;53.160;8.202;2024-02-23T10:33:47;7.60;99.90
41060;DHT22;26811;53.160;8.202;2024-02-23T10:38:53;7.70;99.90
41060;DHT22;26811;53.160;8.202;2024-02-23T10:43:57;7.80;99.90
41060;DHT22;26811;53.160;8.202;2024-02-23T10:49:01;7.90;99.90
41060;DHT22;26811;53.160;8.202;2024-02-23T10:54:02;8.00;99.90
41060;DHT22;26811;53.160;8.202;2024-02-23T10:59:03;7.90;99.90
41060;DHT22;26811;53.160;8.202;2024-02-23T11:04:06;7.90;99.90
41060;DHT22;26811;53.160;8.202;2024-02-23T11:09:08;8.10;99.90
41060;DHT22;26811;53.160;8.202;2024-02-23T11:14:12;8.10;99.90
41060;DHT22;26811;53.160;8.202;2024-02-23T11:19:14;8.10;99.90
41060;DHT22;26811;53.160;8.202;2024-02-23T11:24:16;8.20;99.90
41060;DHT22;26811;53.160;8.202;2024-02-23T11:29:18;8.30;99.90
41060;DHT22;26811;53.160;8.202;2024-02-23T11:34:27;8.30;99.90
41060;DHT22;26811;53.160;8.202;2024-02-23T11:39:29;8.20;99.90
41060;DHT22;26811;53.160;8.202;2024-02-23T11:44:30;8.20;99.90
41060;DHT22;26811;53.160;8.202;2024-02-23T11:49:30;8.10;99.90
41060;DHT22;26811;53.160;8.202;2024-02-23T11:54:32;8.00;99.90
41060;DHT22;26811;53.160;8.202;2024-02-23T11:59:32;8.00;99.90
41060;DHT22;26811;53.160;8.202;2024-02-23T12:04:33;8.00;99.90
41060;DHT22;26811;53.160;8.202;2024-02-23T12:09:33;8.00;99.90
41060;DHT22;26811;53.160;8.202;2024-02-23T12:14:37;8.00;99.90
41060;DHT22;26811;53.160;8.202;2024-02-23T12:19:41;8.00;99.90
41060;DHT22;26811;53.160;8.202;2024-02-23T12:24:42;8.10;99.90
41060;DHT22;26811;53.160;8.202;2024-02-23T12:29:42;8.20;99.90
41060;DHT22;26811;53.160;8.202;2024-02-23T12:34:50;8.50;99.90
41060;DHT22;26811;53.160;8.202;2024-02-23T12:39:52;8.60;99.90
41060;DHT22;26811;53.160;8.202;2024-02-23T12:44:52;9.10;99.90
41060;DHT22;26811;53.160;8.202;2024-02-23T12:49:53;9.30;99.90
41060;DHT22;26811;53.160;8.202;2024-02-23T12:54:53;9.30;99.90
41060;DHT22;26811;53.160;8.202;2024-02-23T12:59:54;9.40;99.90
41060;DHT22;26811;53.160;8.202;2024-02-23T13:04:55;9.30;99.90
41060;DHT22;26811;53.160;8.202;2024-02-23T13:09:55;9.10;99.90
41060;DHT22;26811;53.160;8.202;2024-02-23T13:14:56;9.00;99.90
41060;DHT22;26811;53.160;8.202;2024-02-23T13:19:56;8.80;99.90
41060;DHT22;26811;53.160;8.202;2024-02-23T13:24:57;8.70;99.90
41060;DHT22;26811;53.160;8.202;2024-02-23T13:30:00;8.60;99.90
41060;DHT22;26811;53.160;8.202;2024-02-23T13:35:02;8.50;99.90
41060;DHT22;26811;53.160;8.202;2024-02-23T13:40:05;8.40;99.90
41060;DHT22;26811;53.160;8.202;2024-02-23T13:45:07;8.30;99.90
41060;DHT22;26811;53.160;8.202;2024-02-23T13:50:08;8.40;99.90
41060;DHT22;26811;53.160;8.202;2024-02-23T13:55:08;8.30;99.90
41060;DHT22;26811;53.160;8.202;2024-02-23T14:00:10;8.30;99.90
41060;DHT22;26811;53.160;8.202;2024-02-23T14:05:13;8.20;99.90
41060;DHT22;26811;53.160;8.202;2024-02-23T14:10:13;8.20;99.90
41060;DHT22;26811;53.160;8.202;2024-02-23T14:15:14;8.10;99.90
41060;DHT22;26811;53.160;8.202;2024-02-23T14:20:17;8.00;99.90
41060;DHT22;26811;53.160;8.202;2024-02-23T14:25:18;7.90;99.90
41060;DHT22;26811;53.160;8.202;2024-02-23T14:30:24;7.90;99.90
41060;DHT22;26811;53.160;8.202;2024-02-23T14:35:25;7.90;99.90
41060;DHT22;26811;53.160;8.202;2024-02-23T14:40:26;7.90;99.90
41060;DHT22;26811;53.160;8.202;2024-02-23T14:45:29;8.00;99.90
41060;DHT22;26811;53.160;8.202;2024-02-23T14:50:29;8.20;99.90
41060;DHT22;26811;53.160;8.202;2024-02-23T14:55:33;8.20;99.90
41060;DHT22;26811;53.160;8.202;2024-02-23T15:00:39;8.20;99.90
41060;DHT22;26811;53.160;8.202;2024-02-23T15:05:50;8.20;99.90
41060;DHT22;26811;53.160;8.202;2024-02-23T15:10:51;8.20;99.90
41060;DHT22;26811;53.160;8.202;2024-02-23T15:15:51;8.20;99.90
41060;DHT22;26811;53.160;8.202;2024-02-23T15:20:53;8.20;99.90
41060;DHT22;26811;53.160;8.202;2024-02-23T15:25:54;8.20;99.90
41060;DHT22;26811;53.160;8.202;2024-02-23T15:30:54;8.20;99.90
41060;DHT22;26811;53.160;8.202;2024-02-23T15:35:55;8.30;99.90
41060;DHT22;26811;53.160;8.202;2024-02-23T15:40:56;8.30;99.90
41060;DHT22;26811;53.160;8.202;2024-02-23T15:45:57;8.30;99.90
41060;DHT22;26811;53.160;8.202;2024-02-23T15:51:01;8.30;99.90
41060;DHT22;26811;53.160;8.202;2024-02-23T15:56:01;8.40;99.90
41060;DHT22;26811;53.160;8.202;2024-02-23T16:01:02;8.40;99.90
41060;DHT22;26811;53.160;8.202;2024-02-23T16:06:03;8.40;99.90
41060;DHT22;26811;53.160;8.202;2024-02-23T16:11:04;8.40;99.90
41060;DHT22;26811;53.160;8.202;2024-02-23T16:16:11;8.30;99.90
41060;DHT22;26811;53.160;8.202;2024-02-23T16:21:11;8.30;99.90
41060;DHT22;26811;53.160;8.202;2024-02-23T16:26:16;8.30;99.90
41060;DHT22;26811;53.160;8.202;2024-02-23T16:31:17;8.30;99.90
41060;DHT22;26811;53.160;8.202;2024-02-23T16:36:17;8.20;99.90
41060;DHT22;26811;53.160;8.202;2024-02-23T16:41:18;8.10;99.90
41060;DHT22;26811;53.160;8.202;2024-02-23T16:46:19;8.10;99.90
41060;DHT22;26811;53.160;8.202;2024-02-23T16:51:19;8.00;99.90
41060;DHT22;26811;53.160;8.202;2024-02-23T16:56:20;8.00;99.90
41060;DHT22;26811;53.160;8.202;2024-02-23T17:01:21;7.90;99.90
41060;DHT22;26811;53.160;8.202;2024-02-23T17:06:21;7.90;99.90
41060;DHT22;26811;53.160;8.202;2024-02-23T17:11:27;7.80;99.90
41060;DHT22;26811;53.160;8.202;2024-02-23T17:16:39;7.80;99.90
41060;DHT22;26811;53.160;8.202;2024-02-23T17:22:00;7.80;99.90
41060;DHT22;26811;53.160;8.202;2024-02-23T17:27:01;7.70;99.90
41060;DHT22;26811;53.160;8.202;2024-02-23T17:32:02;7.60;99.90
41060;DHT22;26811;53.160;8.202;2024-02-23T17:37:02;7.50;99.90
41060;DHT22;26811;53.160;8.202;2024-02-23T17:42:06;7.40;99.90
41060;DHT22;26811;53.160;8.202;2024-02-23T17:47:06;7.30;99.90
41060;DHT22;26811;53.160;8.202;2024-02-23T17:52:07;7.20;99.90
41060;DHT22;26811;53.160;8.202;2024-02-23T17:57:08;7.10;99.90
41060;DHT22;26811;53.160;8.202;2024-02-23T18:02:09;7.10;99.90
41060;DHT22;26811;53.160;8.202;2024-02-23T18:07:15;7.00;99.90
41060;DHT22;26811;53.160;8.202;2024-02-23T18:12:24;6.90;99.90
41060;DHT22;26811;53.160;8.202;2024-02-23T18:17:37;6.90;99.90
41060;DHT22;26811;53.160;8.202;2024-02-23T18:22:39;6.80;99.90
41060;DHT22;26811;53.160;8.202;2024-02-23T18:27:39;6.80;99.90
41060;DHT22;26811;53.160;8.202;2024-02-23T18:32:58;6.80;99.90
41060;DHT22;26811;53.160;8.202;2024-02-23T18:38:11;6.70;99.90
41060;DHT22;26811;53.160;8.202;2024-02-23T18:43:12;6.60;99.90
41060;DHT22;26811;53.160;8.202;2024-02-23T18:48:14;6.70;99.90
41060;DHT22;26811;53.160;8.202;2024-02-23T18:53:15;6.70;99.90
41060;DHT22;26811;53.160;8.202;2024-02-23T18:58:15;6.70;99.90
41060;DHT22;26811;53.160;8.202;2024-02-23T19:03:16;6.70;99.90
41060;DHT22;26811;53.160;8.202;2024-02-23T19:08:17;6.70;99.90
41060;DHT22;26811;53.160;8.202;2024-02-23T19:13:17;6.70;99.90
41060;DHT22;26811;53.160;8.202;2024-02-23T19:18:18;6.70;99.90
41060;DHT22;26811;53.160;8.202;2024-02-23T19:23:20;6.70;99.90
41060;DHT22;26811;53.160;8.202;2024-02-23T19:28:20;6.70;99.90
41060;DHT22;26811;53.160;8.202;2024-02-23T19:33:21;6.80;99.90
41060;DHT22;26811;53.160;8.202;2024-02-23T19:38:21;6.80;99.90
41060;DHT22;26811;53.160;8.202;2024-02-23T19:43:22;6.80;99.90
41060;DHT22;26811;53.160;8.202;2024-02-23T19:48:22;6.90;99.90
41060;DHT22;26811;53.160;8.202;2024-02-23T19:53:23;6.90;99.90
41060;DHT22;26811;53.160;8.202;2024-02-23T19:58:24;6.90;99.90
41060;DHT22;26811;53.160;8.202;2024-02-23T20:03:24;7.00;99.90
41060;DHT22;26811;53.160;8.202;2024-02-23T20:08:28;7.00;99.90
41060;DHT22;26811;53.160;8.202;2024-02-23T20:13:29;7.00;99.90
41060;DHT22;26811;53.160;8.202;2024-02-23T20:18:30;7.00;99.90
41060;DHT22;26811;53.160;8.202;2024-02-23T20:23:31;7.10;99.90
41060;DHT22;26811;53.160;8.202;2024-02-23T20:28:32;7.10;99.90
41060;DHT22;26811;53.160;8.202;2024-02-23T20:33:33;7.10;99.90
41060;DHT22;26811;53.160;8.202;2024-02-23T20:38:36;7.10;99.90
41060;DHT22;26811;53.160;8.202;2024-02-23T20:43:37;7.00;99.90
41060;DHT22;26811;53.160;8.202;2024-02-23T20:48:38;6.90;99.90
41060;DHT22;26811;53.160;8.202;2024-02-23T20:53:38;6.90;99.90
41060;DHT22;26811;53.160;8.202;2024-02-23T20:58:38;6.80;99.90
41060;DHT22;26811;53.160;8.202;2024-02-23T21:03:39;6.80;99.90
41060;DHT22;26811;53.160;8.202;2024-02-23T21:08:40;6.80;99.90
41060;DHT22;26811;53.160;8.202;2024-02-23T21:13:41;6.70;99.90
41060;DHT22;26811;53.160;8.202;2024-02-23T21:18:41;6.70;99.90
41060;DHT22;26811;53.160;8.202;2024-02-23T21:23:42;6.70;99.90
41060;DHT22;26811;53.160;8.202;2024-02-23T21:28:43;6.70;99.90
41060;DHT22;26811;53.160;8.202;2024-02-23T21:33:43;6.70;99.90
41060;DHT22;26811;53.160;8.202;2024-02-23T21:38:51;6.60;99.90
41060;DHT22;26811;53.160;8.202;2024-02-23T21:43:52;6.60;99.90
41060;DHT22;26811;53.160;8.202;2024-02-23T21:48:52;6.50;99.90
41060;DHT22;26811;53.160;8.202;2024-02-23T21:53:53;6.50;99.90
41060;DHT22;26811;53.160;8.202;2024-02-23T21:58:53;6.50;99.90
41060;DHT22;26811;53.160;8.202;2024-02-23T22:03:54;6.40;99.90
41060;DHT22;26811;53.160;8.202;2024-02-23T22:08:54;6.40;99.90
41060;DHT22;26811;53.160;8.202;2024-02-23T22:13:55;6.40;99.90
41060;DHT22;26811;53.160;8.202;2024-02-23T22:18:55;6.40;99.90
41060;DHT22;26811;53.160;8.202;2024-02-23T22:23:56;6.40;99.90
41060;DHT22;26811;53.160;8.202;2024-02-23T22:28:56;6.40;99.90
41060;DHT22;26811;53.160;8.202;2024-02-23T22:34:00;6.50;99.90
41060;DHT22;26811;53.160;8.202;2024-02-23T22:39:00;6.60;99.90
41060;DHT22;26811;53.160;8.202;2024-02-23T22:44:01;6.70;99.90
41060;DHT22;26811;53.160;8.202;2024-02-23T22:49:01;6.70;99.90
41060;DHT22;26811;53.160;8.202;2024-02-23T22:54:02;6.80;99.90
41060;DHT22;26811;53.160;8.202;2024-02-23T22:59:02;6.80;99.90
41060;DHT22;26811;53.160;8.202;2024-02-23T23:04:09;6.80;99.90
41060;DHT22;26811;53.160;8.202;2024-02-23T23:09:10;6.80;99.90
41060;DHT22;26811;53.160;8.202;2024-02-23T23:14:11;6.80;99.90
41060;DHT22;26811;53.160;8.202;2024-02-23T23:19:12;6.70;99.90
41060;DHT22;26811;53.160;8.202;2024-02-23T23:24:13;6.60;99.90
41060;DHT22;26811;53.160;8.202;2024-02-23T23:29:14;6.50;99.90
41060;DHT22;26811;53.160;8.202;2024-02-23T23:34:14;6.40;99.90
41060;DHT22;26811;53.160;8.202;2024-02-23T23:39:16;6.40;99.90
41060;DHT22;26811;53.160;8.202;2024-02-23T23:44:17;6.30;99.90
41060;DHT22;26811;53.160;8.202;2024-02-23T23:49:17;6.20;99.90
41060;DHT22;26811;53.160;8.202;2024-02-23T23:54:17;6.20;99.90
41060;DHT22;26811;53.160;8.202;2024-02-23T23:59:18;6.10;99.90
